Time;durP1;ratioP1;P1;durP2;ratioP2;P2;SDS_P1;SDS_P2;PMS_P1;PMS_P2;Temp;Humidity;BMP_temperature;BMP_pressure;BME280_temperature;BME280_humidity;BME280_pressure;Samples;Min_cycle;Max_cycle;Signal;HPM_P1;HPM_P2
2023/08/18 00:00:00;;;;;;;0.90;0.80;;;;;;;28.78;43.31;101702.81;4913404;28;96500;-81
2023/08/18 00:02:34;;;;;;;1.00;0.90;;;;;;;28.77;43.08;101706.63;4906582;28;97018;-81
2023/08/18 00:05:01;;;;;;;1.20;1.10;;;;;;;28.77;43.12;101703.88;4913105;28;97958;-81
2023/08/18 00:07:28;;;;;;;1.15;1.05;;;;;;;28.78;43.07;101704.72;4913036;28;96796;-81
2023/08/18 00:09:55;;;;;;;1.20;1.02;;;;;;;28.77;43.21;101701.09;4913540;28;96887;-81
2023/08/18 00:12:21;;;;;;;1.10;1.00;;;;;;;28.77;43.14;101703.03;4914357;28;96892;-81
2023/08/18 00:14:48;;;;;;;0.95;0.90;;;;;;;28.77;43.18;101705.78;4910130;28;99174;-81
2023/08/18 00:17:15;;;;;;;1.10;0.95;;;;;;;28.76;43.22;101704.94;4906798;28;96856;-81
2023/08/18 00:19:41;;;;;;;1.05;0.93;;;;;;;28.76;42.96;101698.56;4913952;28;96822;-82
2023/08/18 00:22:07;;;;;;;1.20;1.10;;;;;;;28.77;43.20;101700.25;4906490;28;96786;-81
2023/08/18 00:24:35;;;;;;;0.88;0.85;;;;;;;28.76;43.20;101701.31;4912770;28;96758;-81
2023/08/18 00:27:02;;;;;;;0.93;0.90;;;;;;;28.75;43.26;101697.69;4910616;28;96867;-81
2023/08/18 00:29:29;;;;;;;0.95;0.80;;;;;;;28.75;43.31;101702.38;4908391;28;96738;-81
2023/08/18 00:31:55;;;;;;;0.93;0.90;;;;;;;28.76;43.09;101704.09;4908516;28;100438;-81
2023/08/18 00:34:22;;;;;;;1.02;0.98;;;;;;;28.76;43.24;101706.84;4898689;28;98991;-81
2023/08/18 00:36:48;;;;;;;1.30;0.85;;;;;;;28.76;43.24;101704.09;4913931;28;97414;-81
2023/08/18 00:39:15;;;;;;;1.45;1.08;;;;;;;28.75;43.57;101703.22;4895037;28;97234;-81
2023/08/18 00:41:42;;;;;;;1.00;1.00;;;;;;;28.75;43.16;101703.22;4902950;28;99917;-81
2023/08/18 00:44:09;;;;;;;1.00;0.88;;;;;;;28.75;43.32;101699.63;4914333;28;97109;-81
2023/08/18 00:46:36;;;;;;;1.10;1.00;;;;;;;28.75;43.11;101703.22;4923786;28;96889;-81
2023/08/18 00:49:06;;;;;;;1.10;1.00;;;;;;;28.75;43.28;101696.84;4914321;28;96836;-81
2023/08/18 00:51:33;;;;;;;0.90;0.85;;;;;;;28.75;43.28;101694.09;4916199;28;96932;-81
2023/08/18 00:54:03;;;;;;;0.98;0.90;;;;;;;28.73;43.20;101691.53;4911903;28;99593;-81
2023/08/18 00:56:29;;;;;;;1.27;0.95;;;;;;;28.74;42.99;101693.22;4912079;28;96808;-81
2023/08/18 00:58:56;;;;;;;1.10;1.00;;;;;;;28.74;43.16;101693.22;4923449;28;96500;-81
2023/08/18 01:01:23;;;;;;;0.88;0.88;;;;;;;28.74;43.11;101690.47;4925936;28;97890;-81
2023/08/18 01:03:52;;;;;;;0.80;0.70;;;;;;;28.74;43.02;101689.63;4906736;28;98912;-81
2023/08/18 01:06:18;;;;;;;0.70;0.70;;;;;;;28.73;43.18;101694.28;4903729;28;97258;-81
2023/08/18 01:08:45;;;;;;;1.13;1.02;;;;;;;28.73;43.20;101688.75;4924141;28;96970;-81
2023/08/18 01:11:21;;;;;;;1.00;0.90;;;;;;;28.72;43.16;101684.28;4926478;28;97097;-81
2023/08/18 01:14:14;;;;;;;1.05;0.80;;;;;;;28.71;43.12;101682.59;4926992;28;99248;-81
2023/08/18 01:16:46;;;;;;;0.90;0.80;;;;;;;28.71;43.30;101682.59;4912814;28;97353;-82
2023/08/18 01:19:15;;;;;;;0.90;0.70;;;;;;;28.73;43.17;101687.91;4929878;28;96854;-81
2023/08/18 01:21:43;;;;;;;1.00;0.90;;;;;;;28.72;43.12;101686.22;4928465;28;99316;-82
2023/08/18 01:24:10;;;;;;;1.02;0.93;;;;;;;28.72;43.10;101683.44;4929008;28;96819;-81
2023/08/18 01:26:37;;;;;;;0.90;0.90;;;;;;;28.72;43.27;101678.75;4924113;28;97744;-81
2023/08/18 01:29:04;;;;;;;0.80;0.80;;;;;;;28.71;43.47;101677.06;4923712;28;97199;-81
2023/08/18 01:31:33;;;;;;;0.90;0.80;;;;;;;28.71;43.10;101678.97;4901627;28;98736;-81
2023/08/18 01:34:04;;;;;;;1.23;0.90;;;;;;;28.71;43.06;101678.97;4922373;28;96679;-81
2023/08/18 01:36:37;;;;;;;0.70;0.70;;;;;;;28.71;43.46;101677.06;4921948;28;97346;-81
2023/08/18 01:39:05;;;;;;;0.70;0.70;;;;;;;28.71;43.27;101674.28;4928571;28;96957;-81
2023/08/18 01:41:32;;;;;;;1.42;0.90;;;;;;;28.71;43.32;101667.91;4928431;28;97047;-81
2023/08/18 01:44:00;;;;;;;1.02;0.90;;;;;;;28.70;43.24;101664.31;4928814;28;96562;-81
2023/08/18 01:46:26;;;;;;;0.95;0.95;;;;;;;28.70;42.93;101652.41;4928786;28;96762;-81
2023/08/18 01:48:53;;;;;;;0.90;0.90;;;;;;;28.69;43.18;101662.59;4925646;28;97025;-82
2023/08/18 01:51:19;;;;;;;0.80;0.80;;;;;;;28.69;43.22;101670.88;4927892;28;97015;-81
2023/08/18 01:53:46;;;;;;;1.15;1.05;;;;;;;28.70;43.52;101672.59;4929212;28;98836;-81
2023/08/18 01:56:12;;;;;;;0.70;0.70;;;;;;;28.70;43.30;101671.75;4924961;28;96652;-81
2023/08/18 01:58:39;;;;;;;1.00;0.88;;;;;;;28.70;43.23;101660.69;4934691;28;96112;-81
2023/08/18 02:01:05;;;;;;;0.80;0.70;;;;;;;28.69;43.28;101658.97;4924113;28;98760;-81
2023/08/18 02:03:32;;;;;;;0.90;0.80;;;;;;;28.70;43.44;101652.41;4933932;28;98698;-82
2023/08/18 02:05:59;;;;;;;0.98;0.90;;;;;;;28.69;43.29;101647.91;4932743;28;96754;-82
2023/08/18 02:08:25;;;;;;;1.27;0.90;;;;;;;28.68;43.37;101641.53;4926344;28;96827;-81
2023/08/18 02:10:52;;;;;;;1.05;0.95;;;;;;;28.69;43.10;101636.88;4933881;28;96919;-81
2023/08/18 02:13:18;;;;;;;0.90;0.90;;;;;;;28.69;43.08;101634.09;4933222;28;96524;-81
2023/08/18 02:15:45;;;;;;;1.23;1.00;;;;;;;28.68;43.20;101635.16;4932813;28;95899;-81
2023/08/18 02:18:12;;;;;;;0.85;0.85;;;;;;;28.68;43.17;101630.47;4914840;28;96716;-82
2023/08/18 02:20:39;;;;;;;0.95;0.88;;;;;;;28.68;43.37;101635.16;4908576;28;96832;-82
2023/08/18 02:23:06;;;;;;;0.85;0.80;;;;;;;28.67;43.29;101630.69;4924113;28;97892;-82
2023/08/18 02:25:33;;;;;;;0.95;0.80;;;;;;;28.67;43.31;101637.06;4926060;28;97184;-81
2023/08/18 02:27:59;;;;;;;0.85;0.80;;;;;;;28.67;43.13;101639.00;4924974;28;96736;-82
2023/08/18 02:30:26;;;;;;;1.20;1.00;;;;;;;28.67;43.14;101641.75;4925388;28;96904;-82
2023/08/18 02:32:52;;;;;;;1.05;0.80;;;;;;;28.67;43.24;101639.00;4929828;28;97479;-81
2023/08/18 02:35:19;;;;;;;0.90;0.73;;;;;;;28.66;43.21;101635.38;4910335;28;97588;-82
2023/08/18 02:37:46;;;;;;;2.00;0.93;;;;;;;28.67;43.30;101630.69;4930209;28;97264;-82
2023/08/18 02:40:13;;;;;;;0.70;0.70;;;;;;;28.68;43.26;101629.63;4924949;28;99363;-82
2023/08/18 02:42:41;;;;;;;0.85;0.80;;;;;;;28.67;43.32;101630.69;4912362;28;100634;-81
2023/08/18 02:45:07;;;;;;;0.80;0.80;;;;;;;28.66;43.13;101631.75;4924483;28;96786;-81
2023/08/18 02:47:37;;;;;;;0.90;0.80;;;;;;;28.66;43.14;101635.38;4927920;28;97027;-81
2023/08/18 02:50:05;;;;;;;0.80;0.80;;;;;;;28.66;42.98;101631.75;4911899;28;99842;-81
2023/08/18 02:52:33;;;;;;;0.77;0.73;;;;;;;28.65;43.13;101627.28;4927136;28;96796;-81
2023/08/18 02:54:59;;;;;;;0.60;0.60;;;;;;;28.65;43.22;101635.59;4929839;28;96851;-81
2023/08/18 02:57:26;;;;;;;0.80;0.70;;;;;;;28.65;42.80;101639.19;4907085;28;96898;-82
2023/08/18 02:59:53;;;;;;;0.70;0.70;;;;;;;28.66;43.29;101634.53;4909656;28;100575;-81
2023/08/18 03:02:21;;;;;;;0.60;0.60;;;;;;;28.65;43.02;101636.44;4922374;28;97306;-81
2023/08/18 03:04:47;;;;;;;0.82;0.82;;;;;;;28.64;43.07;101644.94;4925603;28;96986;-81
2023/08/18 03:07:14;;;;;;;0.98;0.85;;;;;;;28.65;42.93;101647.50;4925933;28;96899;-81
2023/08/18 03:09:42;;;;;;;0.70;0.70;;;;;;;28.64;43.25;101631.13;4924573;28;99900;-81
2023/08/18 03:12:08;;;;;;;0.80;0.70;;;;;;;28.64;43.42;101631.13;4918836;28;98768;-81
2023/08/18 03:14:35;;;;;;;0.73;0.65;;;;;;;28.64;43.31;101628.34;4918131;28;97024;-81
2023/08/18 03:17:01;;;;;;;1.13;0.80;;;;;;;28.65;43.35;101625.38;4926600;28;97641;-81
2023/08/18 03:19:28;;;;;;;0.90;0.68;;;;;;;28.63;43.03;101619.22;4918665;28;97581;-81
2023/08/18 03:21:55;;;;;;;0.85;0.80;;;;;;;28.64;43.34;101620.06;4923169;28;97003;-82
2023/08/18 03:24:21;;;;;;;0.70;0.70;;;;;;;28.63;43.09;101619.22;4905151;28;96897;-81
2023/08/18 03:26:48;;;;;;;1.00;0.90;;;;;;;28.64;43.21;101620.06;4923342;28;96712;-82
2023/08/18 03:29:14;;;;;;;0.90;0.80;;;;;;;28.63;43.11;101619.22;4919020;28;99085;-81
2023/08/18 03:31:41;;;;;;;0.70;0.63;;;;;;;28.63;43.14;101613.69;4923852;28;99483;-81
2023/08/18 03:34:08;;;;;;;0.60;0.60;;;;;;;28.64;43.16;101622.81;4924500;28;96624;-81
2023/08/18 03:36:34;;;;;;;0.70;0.70;;;;;;;28.62;43.37;101623.03;4926151;28;97619;-81
2023/08/18 03:39:01;;;;;;;1.00;0.85;;;;;;;28.63;43.28;101630.25;4925301;28;98362;-81
2023/08/18 03:41:29;;;;;;;0.80;0.70;;;;;;;28.62;43.32;101625.78;4926963;28;97218;-81
2023/08/18 03:43:58;;;;;;;0.70;0.60;;;;;;;28.63;43.26;101627.50;4925062;28;96620;-81
2023/08/18 03:46:26;;;;;;;0.70;0.68;;;;;;;28.61;43.58;101620.47;4924182;28;96516;-81
2023/08/18 03:48:55;;;;;;;0.80;0.80;;;;;;;28.61;43.09;101629.63;4921247;28;100467;-81
2023/08/18 03:51:22;;;;;;;0.70;0.70;;;;;;;28.61;43.14;101617.72;4925303;28;99928;-81
2023/08/18 03:53:49;;;;;;;0.90;0.70;;;;;;;28.61;43.29;101614.94;4908949;28;96740;-82
2023/08/18 03:56:16;;;;;;;0.77;0.77;;;;;;;28.61;42.99;101613.03;4918530;28;97072;-82
2023/08/18 03:58:42;;;;;;;0.80;0.80;;;;;;;28.60;43.37;101608.56;4925405;28;97747;-81
2023/08/18 04:01:09;;;;;;;1.00;0.85;;;;;;;28.60;42.96;101608.56;4928274;28;96850;-81
2023/08/18 04:03:39;;;;;;;0.77;0.77;;;;;;;28.60;43.26;101603.03;4903163;28;96747;-81
2023/08/18 04:06:09;;;;;;;0.90;0.80;;;;;;;28.60;43.32;101604.94;4924552;28;96831;-81
2023/08/18 04:08:40;;;;;;;1.00;0.82;;;;;;;28.60;43.27;101603.03;4925903;28;98254;-81
2023/08/18 04:11:08;;;;;;;1.02;0.75;;;;;;;28.61;43.22;101606.66;4917920;28;96838;-81
2023/08/18 04:13:35;;;;;;;0.60;0.60;;;;;;;28.60;43.20;101610.47;4924568;28;96987;-81
2023/08/18 04:16:02;;;;;;;0.85;0.60;;;;;;;28.58;43.07;101591.34;4908791;28;96116;-81
2023/08/18 04:18:29;;;;;;;0.90;0.80;;;;;;;28.59;43.13;101600.50;4904140;28;98659;-81
2023/08/18 04:20:57;;;;;;;1.05;0.80;;;;;;;28.58;43.36;101599.63;4922022;28;98855;-81
2023/08/18 04:23:23;;;;;;;1.23;0.63;;;;;;;28.58;43.21;101601.53;4907669;28;97117;-81
2023/08/18 04:25:50;;;;;;;1.55;1.00;;;;;;;28.59;43.13;101606.00;4907224;28;96728;-81
2023/08/18 04:28:16;;;;;;;0.75;0.68;;;;;;;28.59;43.38;101600.50;4918635;28;99647;-81
2023/08/18 04:30:46;;;;;;;0.77;0.63;;;;;;;28.58;43.17;101613.47;4920361;28;98116;-81
2023/08/18 04:33:27;;;;;;;0.70;0.70;;;;;;;28.57;43.12;101619.19;4916400;28;96746;-81
2023/08/18 04:35:57;;;;;;;0.95;0.70;;;;;;;28.58;43.15;101616.22;4905526;28;97580;-81
2023/08/18 04:38:27;;;;;;;1.00;0.90;;;;;;;28.58;43.40;101613.47;4900901;28;97274;-81
2023/08/18 04:40:58;;;;;;;0.70;0.70;;;;;;;28.58;43.08;101618.13;4906151;28;98163;-81
2023/08/18 04:43:27;;;;;;;1.30;0.90;;;;;;;28.57;43.25;101617.28;4907738;28;97075;-81
2023/08/18 04:45:53;;;;;;;0.82;0.57;;;;;;;28.58;43.00;101618.13;4921675;28;96910;-81
2023/08/18 04:48:21;;;;;;;0.75;0.70;;;;;;;28.57;43.18;101619.19;4909591;28;98061;-81
2023/08/18 04:50:48;;;;;;;1.02;0.77;;;;;;;28.56;43.02;101614.72;4924080;28;99813;-81
2023/08/18 04:53:15;;;;;;;0.80;0.70;;;;;;;28.56;43.13;101617.50;4909519;28;96820;-81
2023/08/18 04:55:42;;;;;;;0.77;0.65;;;;;;;28.56;43.04;101611.97;4910624;28;96813;-81
2023/08/18 04:58:12;;;;;;;0.93;0.70;;;;;;;28.56;43.16;101610.06;4921313;28;96742;-81
2023/08/18 05:00:40;;;;;;;1.10;0.85;;;;;;;28.55;43.11;101605.59;4925446;28;99271;-81
2023/08/18 05:03:07;;;;;;;0.90;0.70;;;;;;;28.56;43.11;101595.38;4921525;28;96969;-82
2023/08/18 05:05:38;;;;;;;0.60;0.60;;;;;;;28.56;43.11;101600.91;4924082;28;97058;-82
2023/08/18 05:08:06;;;;;;;0.60;0.60;;;;;;;28.56;43.26;101598.13;4924394;28;97149;-81
2023/08/18 05:10:32;;;;;;;0.90;0.80;;;;;;;28.55;43.16;101597.28;4910017;28;100244;-81
2023/08/18 05:12:59;;;;;;;0.60;0.60;;;;;;;28.54;43.03;101592.81;4926152;28;96638;-81
2023/08/18 05:15:28;;;;;;;0.80;0.75;;;;;;;28.55;43.19;101600.06;4925746;28;98306;-81
2023/08/18 05:17:55;;;;;;;0.60;0.60;;;;;;;28.56;43.19;101603.66;4928052;28;98138;-81
2023/08/18 05:20:21;;;;;;;0.82;0.70;;;;;;;28.56;43.01;101595.38;4917673;28;98853;-81
2023/08/18 05:22:48;;;;;;;0.60;0.60;;;;;;;28.56;43.05;101595.38;4921107;28;96621;-81
2023/08/18 05:25:14;;;;;;;0.68;0.52;;;;;;;28.56;42.94;101603.66;4927068;28;98347;-82
2023/08/18 05:27:42;;;;;;;0.85;0.65;;;;;;;28.56;43.17;101611.97;4928396;28;98191;-81
2023/08/18 05:30:09;;;;;;;0.70;0.70;;;;;;;28.54;43.20;101612.16;4926422;28;96881;-82
2023/08/18 05:32:36;;;;;;;0.73;0.70;;;;;;;28.56;43.24;101609.19;4923263;28;96644;-81
2023/08/18 05:35:04;;;;;;;0.77;0.65;;;;;;;28.56;42.93;101611.97;4922783;28;97168;-81
2023/08/18 05:37:30;;;;;;;0.80;0.70;;;;;;;28.55;43.25;101610.25;4920362;28;99223;-81
2023/08/18 05:39:57;;;;;;;0.80;0.80;;;;;;;28.55;43.13;101613.03;4926175;28;98093;-82
2023/08/18 05:42:23;;;;;;;1.00;0.80;;;;;;;28.54;43.17;101617.69;4928019;28;96795;-80
2023/08/18 05:44:50;;;;;;;0.70;0.70;;;;;;;28.55;43.01;101613.03;4933251;28;96764;-82
2023/08/18 05:47:16;;;;;;;0.90;0.80;;;;;;;28.54;43.13;101611.31;4934269;28;100479;-82
2023/08/18 05:49:43;;;;;;;0.70;0.70;;;;;;;28.54;43.05;101614.94;4933613;28;96427;-81
2023/08/18 05:52:09;;;;;;;0.70;0.70;;;;;;;28.54;43.02;101614.09;4935771;28;96711;-81
2023/08/18 05:54:36;;;;;;;0.60;0.50;;;;;;;28.54;43.15;101619.59;4917328;28;96630;-81
2023/08/18 05:57:03;;;;;;;0.80;0.65;;;;;;;28.54;43.18;101606.66;4934323;28;96808;-81
2023/08/18 05:59:32;;;;;;;0.70;0.65;;;;;;;28.55;43.14;101601.97;4931387;28;98490;-81
2023/08/18 06:01:59;;;;;;;0.77;0.70;;;;;;;28.54;42.98;101600.25;4933058;28;95893;-81
2023/08/18 06:04:25;;;;;;;1.00;0.70;;;;;;;28.54;43.27;101591.97;4931772;28;96682;-81
2023/08/18 06:06:52;;;;;;;0.85;0.70;;;;;;;28.53;43.20;101590.28;4927964;28;96798;-81
2023/08/18 06:09:19;;;;;;;0.80;0.80;;;;;;;28.54;43.18;101591.97;4920278;28;97954;-81
2023/08/18 06:11:46;;;;;;;0.80;0.68;;;;;;;28.53;43.07;101584.75;4929254;28;97346;-81
2023/08/18 06:14:12;;;;;;;0.80;0.80;;;;;;;28.53;42.91;101582.84;4931271;28;96441;-81
2023/08/18 06:16:39;;;;;;;0.60;0.60;;;;;;;28.53;43.19;101588.34;4929450;28;97021;-81
2023/08/18 06:19:05;;;;;;;1.25;0.75;;;;;;;28.53;42.92;101587.50;4932404;28;96631;-82
2023/08/18 06:21:32;;;;;;;0.75;0.70;;;;;;;28.53;43.21;101588.34;4928649;28;96753;-81
2023/08/18 06:23:59;;;;;;;0.75;0.60;;;;;;;28.54;43.09;101583.69;4913261;28;96973;-81
2023/08/18 06:26:25;;;;;;;0.73;0.70;;;;;;;28.54;43.40;101581.78;4930916;28;96706;-82
2023/08/18 06:28:51;;;;;;;0.70;0.57;;;;;;;28.54;42.83;101583.69;4930228;28;97931;-81
2023/08/18 06:31:18;;;;;;;0.90;0.70;;;;;;;28.54;43.26;101586.44;4929125;28;97226;-81
2023/08/18 06:33:45;;;;;;;0.70;0.52;;;;;;;28.53;43.02;101581.97;4931587;28;97088;-81
2023/08/18 06:36:12;;;;;;;1.02;0.80;;;;;;;28.53;42.90;101577.31;4940485;28;98362;-81
2023/08/18 06:38:38;;;;;;;0.80;0.80;;;;;;;28.53;43.08;101585.59;4928398;28;96578;-82
2023/08/18 06:41:06;;;;;;;0.80;0.80;;;;;;;28.53;43.07;101577.31;4928365;28;96552;-81
2023/08/18 06:43:32;;;;;;;0.60;0.60;;;;;;;28.53;43.06;101581.97;4913621;28;97644;-81
2023/08/18 06:45:59;;;;;;;1.00;0.90;;;;;;;28.53;43.11;101588.34;4925457;28;100963;-81
2023/08/18 06:48:26;;;;;;;0.70;0.65;;;;;;;28.52;43.09;101586.66;4921784;28;97021;-81
2023/08/18 06:50:52;;;;;;;1.00;0.90;;;;;;;28.54;43.29;101591.97;4920373;28;97341;-81
2023/08/18 06:53:19;;;;;;;0.65;0.65;;;;;;;28.53;43.03;101587.50;4911875;28;96891;-81
2023/08/18 06:55:45;;;;;;;0.80;0.60;;;;;;;28.53;42.92;101590.28;4928709;28;96890;-81
2023/08/18 06:58:27;;;;;;;0.73;0.73;;;;;;;28.52;43.30;101588.56;4916197;28;99890;-81
2023/08/18 07:00:55;;;;;;;0.52;0.52;;;;;;;28.52;43.04;101592.19;4926628;28;96828;-81
2023/08/18 07:03:21;;;;;;;0.63;0.50;;;;;;;28.53;43.19;101584.75;4927434;28;96789;-81
2023/08/18 07:05:48;;;;;;;0.68;0.60;;;;;;;28.53;43.13;101590.28;4927451;28;96851;-81
2023/08/18 07:08:14;;;;;;;0.70;0.63;;;;;;;28.54;43.02;101589.22;4928458;28;96691;-81
2023/08/18 07:10:42;;;;;;;0.70;0.60;;;;;;;28.53;43.27;101587.50;4926857;28;96688;-81
2023/08/18 07:13:10;;;;;;;0.95;0.75;;;;;;;28.53;43.15;101582.84;4929224;28;97010;-82
2023/08/18 07:15:37;;;;;;;0.77;0.77;;;;;;;28.53;42.78;101582.84;4919417;28;99609;-82
2023/08/18 07:18:04;;;;;;;1.17;0.70;;;;;;;28.52;43.08;101578.38;4942716;28;97104;-82
2023/08/18 07:20:31;;;;;;;0.70;0.70;;;;;;;28.54;42.97;101589.22;4929526;28;96833;-81
2023/08/18 07:22:58;;;;;;;1.00;0.80;;;;;;;28.53;43.14;101582.84;4931401;28;97022;-81
2023/08/18 07:25:26;;;;;;;1.20;0.70;;;;;;;28.53;43.25;101591.13;4920085;28;97359;-81
2023/08/18 07:27:53;;;;;;;0.70;0.70;;;;;;;28.54;43.02;101583.69;4925683;28;97903;-81
2023/08/18 07:30:22;;;;;;;0.70;0.70;;;;;;;28.53;42.95;101585.59;4929207;28;96726;-81
2023/08/18 07:32:49;;;;;;;0.85;0.80;;;;;;;28.53;43.00;101581.97;4913619;28;97011;-81
2023/08/18 07:35:15;;;;;;;0.80;0.68;;;;;;;28.54;43.18;101594.75;4928810;28;97447;-81
2023/08/18 07:37:42;;;;;;;0.70;0.57;;;;;;;28.54;42.94;101598.34;4926456;28;96921;-81
2023/08/18 07:40:21;;;;;;;0.60;0.60;;;;;;;28.54;43.13;101603.88;4920483;28;96673;-81
2023/08/18 07:42:48;;;;;;;0.73;0.65;;;;;;;28.54;43.09;101597.50;4924978;28;96612;-81
2023/08/18 07:45:15;;;;;;;0.70;0.60;;;;;;;28.53;43.08;101598.56;4928439;28;99049;-82
2023/08/18 07:47:42;;;;;;;0.85;0.80;;;;;;;28.53;43.15;101598.56;4936461;28;97807;-82
2023/08/18 07:50:11;;;;;;;0.70;0.70;;;;;;;28.54;43.15;101591.97;4933006;28;96641;-81
2023/08/18 07:52:37;;;;;;;0.70;0.70;;;;;;;28.53;42.96;101593.03;4929493;28;96810;-81
2023/08/18 07:55:05;;;;;;;0.80;0.75;;;;;;;28.53;42.88;101587.50;4930874;28;96403;-81
2023/08/18 07:57:32;;;;;;;1.00;0.90;;;;;;;28.54;42.95;101586.44;4927210;28;96882;-81
2023/08/18 07:59:58;;;;;;;0.70;0.68;;;;;;;28.53;43.03;101590.28;4928644;28;97113;-81
2023/08/18 08:02:25;;;;;;;1.20;0.90;;;;;;;28.52;43.10;101586.66;4913315;28;96696;-81
2023/08/18 08:04:55;;;;;;;0.73;0.70;;;;;;;28.53;43.17;101595.81;4927693;28;100794;-81
2023/08/18 08:07:22;;;;;;;0.82;0.70;;;;;;;28.54;43.09;101590.06;4911941;28;98473;-81
2023/08/18 08:09:49;;;;;;;0.70;0.70;;;;;;;28.54;42.72;101591.97;4930524;28;97040;-82
2023/08/18 08:12:16;;;;;;;1.20;1.00;;;;;;;28.53;43.12;101599.41;4927924;28;96663;-81
2023/08/18 08:14:43;;;;;;;0.85;0.70;;;;;;;28.53;42.89;101601.31;4927124;28;98182;-81
2023/08/18 08:17:09;;;;;;;0.77;0.75;;;;;;;28.53;43.09;101599.41;4926502;28;96678;-81
2023/08/18 08:19:36;;;;;;;0.95;0.88;;;;;;;28.53;43.07;101598.56;4929491;28;97146;-81
2023/08/18 08:22:08;;;;;;;0.77;0.65;;;;;;;28.54;43.12;101605.78;4927728;28;96583;-81
2023/08/18 08:24:35;;;;;;;0.85;0.70;;;;;;;28.53;42.94;101596.66;4922235;28;96881;-82
2023/08/18 08:27:01;;;;;;;0.75;0.65;;;;;;;28.53;42.92;101604.94;4923459;28;96876;-81
2023/08/18 08:29:28;;;;;;;0.85;0.85;;;;;;;28.54;43.06;101611.31;4925420;28;96902;-81
2023/08/18 08:31:55;;;;;;;0.70;0.68;;;;;;;28.54;42.92;101603.03;4926029;28;96932;-81
2023/08/18 08:34:23;;;;;;;0.73;0.73;;;;;;;28.54;42.95;101603.03;4908760;28;99097;-81
2023/08/18 08:36:51;;;;;;;1.25;0.90;;;;;;;28.54;43.20;101601.13;4924965;28;96774;-81
2023/08/18 08:39:18;;;;;;;0.93;0.70;;;;;;;28.53;42.92;101602.19;4926348;28;96699;-80
2023/08/18 08:41:44;;;;;;;0.80;0.80;;;;;;;28.54;43.02;101605.78;4926130;28;96666;-81
2023/08/18 08:44:11;;;;;;;0.80;0.80;;;;;;;28.53;43.15;101604.09;4920720;28;96861;-81
2023/08/18 08:46:38;;;;;;;0.93;0.80;;;;;;;28.55;43.25;101607.50;4922680;28;99414;-81
2023/08/18 08:49:05;;;;;;;1.17;0.80;;;;;;;28.55;42.90;101607.50;4925386;28;96554;-81
2023/08/18 08:51:37;;;;;;;0.93;0.70;;;;;;;28.54;43.13;101603.03;4924875;28;97180;-81
2023/08/18 08:54:07;;;;;;;0.95;0.80;;;;;;;28.55;43.08;101613.03;4923583;28;96716;-81
2023/08/18 08:56:35;;;;;;;0.85;0.75;;;;;;;28.55;43.19;101608.34;4924747;28;97744;-82
2023/08/18 08:59:01;;;;;;;0.93;0.80;;;;;;;28.54;43.02;101616.84;4923243;28;96738;-81
2023/08/18 09:01:28;;;;;;;0.85;0.80;;;;;;;28.54;42.95;101614.94;4922977;28;96755;-81
2023/08/18 09:03:56;;;;;;;0.70;0.70;;;;;;;28.54;43.09;101614.94;4923273;28;96939;-81
2023/08/18 09:06:23;;;;;;;0.70;0.70;;;;;;;28.54;42.97;101611.31;4907665;28;99795;-81
2023/08/18 09:08:50;;;;;;;1.40;1.10;;;;;;;28.54;43.08;101619.59;4913534;28;96603;-81
2023/08/18 09:11:17;;;;;;;0.80;0.80;;;;;;;28.54;43.13;101620.47;4920445;28;96751;-81
2023/08/18 09:13:50;;;;;;;1.15;1.00;;;;;;;28.54;43.07;101622.38;4907506;28;100447;-81
2023/08/18 09:16:16;;;;;;;0.70;0.70;;;;;;;28.54;43.03;101623.22;4916929;28;96790;-81
2023/08/18 09:18:45;;;;;;;1.20;0.80;;;;;;;28.54;42.90;101619.59;4908227;28;96835;-81
2023/08/18 09:21:13;;;;;;;0.90;0.75;;;;;;;28.54;43.05;101617.69;4915154;28;96812;-81
2023/08/18 09:23:39;;;;;;;1.10;1.00;;;;;;;28.55;43.20;101621.31;4913532;28;97688;-81
2023/08/18 09:26:06;;;;;;;1.30;0.90;;;;;;;28.54;43.03;101608.56;4918369;28;97044;-82
2023/08/18 09:28:33;;;;;;;0.85;0.80;;;;;;;28.54;42.94;101603.88;4909551;28;96876;-81
2023/08/18 09:30:59;;;;;;;0.70;0.70;;;;;;;28.54;43.00;101606.66;4903992;28;96950;-82
2023/08/18 09:33:27;;;;;;;0.93;0.82;;;;;;;28.55;42.79;101608.34;4906227;28;97386;-81
2023/08/18 09:35:59;;;;;;;0.88;0.80;;;;;;;28.55;43.12;101610.25;4912196;28;96998;-81
2023/08/18 09:38:27;;;;;;;0.90;0.70;;;;;;;28.55;42.76;101604.72;4908455;28;96713;-81
2023/08/18 09:41:03;;;;;;;0.80;0.80;;;;;;;28.55;42.95;101613.03;4909181;28;96760;-81
2023/08/18 09:43:29;;;;;;;0.95;0.85;;;;;;;28.54;43.14;101603.88;4910451;28;99176;-81
2023/08/18 09:45:57;;;;;;;0.80;0.80;;;;;;;28.55;43.05;101610.25;4907265;28;96775;-81
2023/08/18 09:48:26;;;;;;;0.90;0.80;;;;;;;28.56;43.05;101611.97;4909482;28;96686;-81
2023/08/18 09:50:57;;;;;;;1.13;1.02;;;;;;;28.55;43.00;101608.34;4911370;28;96874;-81
2023/08/18 09:53:29;;;;;;;0.80;0.80;;;;;;;28.56;43.02;101603.66;4907322;28;97522;-81
2023/08/18 09:56:06;;;;;;;0.88;0.80;;;;;;;28.55;42.94;101602.81;4906877;28;97899;-81
2023/08/18 09:58:43;;;;;;;1.05;0.80;;;;;;;28.55;43.06;101594.53;4908824;28;96831;-81
2023/08/18 10:01:12;;;;;;;1.10;1.00;;;;;;;28.55;43.01;101591.75;4910804;28;96712;-81
2023/08/18 10:03:40;;;;;;;0.80;0.80;;;;;;;28.57;42.78;101583.25;4909413;28;96945;-81
2023/08/18 10:06:07;;;;;;;0.75;0.73;;;;;;;28.56;43.07;101589.84;4902651;28;96709;-81
2023/08/18 10:08:34;;;;;;;0.80;0.80;;;;;;;28.57;43.04;101592.41;4902955;28;97934;-81
2023/08/18 10:11:01;;;;;;;0.88;0.85;;;;;;;28.57;42.65;101594.31;4907197;28;97214;-81
2023/08/18 10:13:33;;;;;;;1.10;0.90;;;;;;;28.57;42.81;101586.03;4914850;28;97114;-81
2023/08/18 10:16:02;;;;;;;1.08;0.95;;;;;;;28.57;42.93;101578.59;4908068;28;97927;-81
2023/08/18 10:18:30;;;;;;;1.75;1.10;;;;;;;28.57;42.70;101578.59;4908618;28;96910;-81
2023/08/18 10:20:57;;;;;;;0.80;0.80;;;;;;;28.58;42.98;101584.97;4908922;28;96608;-81
2023/08/18 10:23:28;;;;;;;1.10;1.00;;;;;;;28.58;42.72;101576.66;4907323;28;96943;-81
2023/08/18 10:25:54;;;;;;;1.20;1.05;;;;;;;28.58;42.83;101577.53;4908175;28;98028;-81
2023/08/18 10:28:26;;;;;;;1.15;1.05;;;;;;;28.59;42.89;101572.84;4913738;28;97123;-81
2023/08/18 10:31:08;;;;;;;1.10;1.00;;;;;;;28.59;42.99;101570.94;4906778;28;96811;-81
2023/08/18 10:33:48;;;;;;;1.25;1.15;;;;;;;28.59;43.03;101572.84;4905310;28;96796;-81
2023/08/18 10:36:26;;;;;;;1.10;1.00;;;;;;;28.59;43.00;101582.00;4891983;28;99741;-82
2023/08/18 10:38:55;;;;;;;1.10;1.00;;;;;;;28.60;42.94;101583.69;4903315;28;96745;-82
2023/08/18 10:41:25;;;;;;;1.10;1.00;;;;;;;28.61;42.91;101579.03;4913091;28;97194;-82
2023/08/18 10:43:56;;;;;;;1.08;0.98;;;;;;;28.60;42.83;101571.78;4904050;28;97861;-82
2023/08/18 10:46:33;;;;;;;1.45;1.20;;;;;;;28.61;42.88;101567.97;4911697;28;97829;-82
2023/08/18 10:49:00;;;;;;;1.30;1.20;;;;;;;28.60;42.71;101564.34;4914880;28;96791;-82
2023/08/18 10:51:28;;;;;;;1.35;1.25;;;;;;;28.61;42.83;101552.22;4915112;28;97052;-82
2023/08/18 10:53:54;;;;;;;1.60;1.30;;;;;;;28.61;43.03;101555.00;4909073;28;96831;-82
2023/08/18 10:56:22;;;;;;;1.70;1.20;;;;;;;28.63;42.81;101555.63;4914914;28;97550;-82
2023/08/18 10:58:50;;;;;;;1.60;1.50;;;;;;;28.64;43.01;101550.97;4915558;28;96995;-80
2023/08/18 11:01:20;;;;;;;1.75;1.63;;;;;;;28.64;42.83;101546.28;4921829;28;96938;-80
2023/08/18 11:03:47;;;;;;;1.40;1.30;;;;;;;28.64;42.86;101540.75;4917734;28;98705;-80
2023/08/18 11:06:13;;;;;;;1.65;1.50;;;;;;;28.64;43.04;101538.00;4919580;28;96843;-81
2023/08/18 11:08:40;;;;;;;1.50;1.40;;;;;;;28.66;43.07;101537.78;4919664;28;96691;-81
2023/08/18 11:11:09;;;;;;;1.75;1.40;;;;;;;28.67;43.18;101531.19;4921306;28;96829;-80
2023/08/18 11:13:36;;;;;;;1.60;1.50;;;;;;;28.67;43.00;101533.94;4919630;28;97659;-79
2023/08/18 11:16:03;;;;;;;1.63;1.50;;;;;;;28.66;42.96;101533.09;4920858;28;96834;-79
2023/08/18 11:18:29;;;;;;;1.40;1.30;;;;;;;28.67;42.87;101532.03;4917521;28;96893;-80
2023/08/18 11:20:56;;;;;;;1.60;1.50;;;;;;;28.69;42.81;101529.06;4921364;28;97124;-80
2023/08/18 11:23:23;;;;;;;1.50;1.40;;;;;;;28.69;42.92;101529.06;4917316;28;98250;-80
2023/08/18 11:25:50;;;;;;;1.60;1.50;;;;;;;28.69;43.11;101531.81;4915670;28;96780;-80